Pietro Novelli — IOTQ — position and weather

sailwx.info

Track history (hours):
 
Tides and Currents Weather Stations Pressure Air Temp Water Temp Dewpoint Dewpoint Depression Visibility Wind Speed Wind Dir Waves Ship Positions

Pietro Novelli

Last reported at 2015-Aug-31 04:33 UTC. Time now 2015-Aug-31 04:44 UTC.
Position N 38°13' E 015°15'.

Length 91 m; draft 3.9 m.

Type: Ship. MMSI: 247000300.

Date/timePositionNaut miles runAvg speedWind from/ knotsBaromVisibWave heightAir tempDewpointWater temp
2015-Aug-31 04:33N 38°13' E 015°15'0 0.0
2015-Aug-31 03:33N 38°13' E 015°15'0 0.0
2015-Aug-31 02:33N 38°13' E 015°15'0 0.0
2015-Aug-31 01:33N 38°13' E 015°15'0 0.0
2015-Aug-31 00:33N 38°13' E 015°15'0 0.0
2015-Aug-30 23:33N 38°13' E 015°15'0 0.0
2015-Aug-30 22:33N 38°13' E 015°15'0 0.0
2015-Aug-30 21:33N 38°13' E 015°15'0 0.0
2015-Aug-30 20:33N 38°13' E 015°15'0 0.0
2015-Aug-30 19:33N 38°13' E 015°15'0 0.0
2015-Aug-30 18:33N 38°13' E 015°15'4 3.5
2015-Aug-30 17:32N 38°16' E 015°17'1312.9
2015-Aug-30 16:33N 38°23' E 015°03'7 6.8
2015-Aug-30 15:33N 38°28' E 014°57'5 5.0
2015-Aug-30 14:33N 38°33' E 014°55'15 7.5
2015-Aug-30 12:30N 38°34' E 014°35'1111.2
2015-Aug-30 11:33N 38°32' E 014°22'5 4.9
2015-Aug-30 10:33N 38°33' E 014°28'8 8.4
2015-Aug-30 09:33N 38°34' E 014°38'1110.0
2015-Aug-30 08:27N 38°33' E 014°53'7 7.2
2015-Aug-30 07:33N 38°28' E 014°58'4 3.8
2015-Aug-30 06:33N 38°25' E 014°60'1414.2
2015-Aug-30 05:33N 38°17' E 015°15'4 4.2
2015-Aug-30 04:33N 38°13' E 015°15'0 0.0
2015-Aug-30 03:33N 38°13' E 015°15'0 0.0
2015-Aug-30 02:34N 38°13' E 015°15'0 0.0
2015-Aug-30 01:33N 38°13' E 015°15'0 0.0
2015-Aug-30 00:33N 38°13' E 015°15'0 0.0
2015-Aug-29 23:34N 38°13' E 015°15'0 0.0
2015-Aug-29 22:33N 38°13' E 015°15'0 0.0
2015-Aug-29 21:33N 38°13' E 015°15'0 0.0
2015-Aug-29 20:34N 38°13' E 015°15'0 0.0
2015-Aug-29 19:33N 38°13' E 015°15'0 0.0
2015-Aug-29 18:33N 38°13' E 015°15'3 3.4
2015-Aug-29 17:34N 38°16' E 015°17'1313.2
2015-Aug-29 16:33N 38°24' E 015°03'6 6.3
2015-Aug-29 15:33N 38°28' E 014°57'6 5.8
2015-Aug-29 14:33N 38°33' E 014°54'7 7.0
2015-Aug-29 13:34N 38°36' E 015°02'6 6.0
2015-Aug-29 12:32N 38°41' E 015°06'9 9.4
2015-Aug-29 11:33N 38°48' E 015°15'3 2.7
2015-Aug-29 10:33N 38°47' E 015°11'10 9.9
2015-Aug-29 09:33N 38°38' E 015°05'9 9.4
2015-Aug-29 08:33N 38°34' E 014°54'6 6.3
2015-Aug-29 07:33N 38°28' E 014°58'3 3.4
2015-Aug-29 06:33N 38°25' E 014°59'1414.5
2015-Aug-29 05:33N 38°18' E 015°15'5 4.6
2015-Aug-29 04:33N 38°13' E 015°15'0 0.0
2015-Aug-29 03:33N 38°13' E 015°15'0 0.0
2015-Aug-29 02:33N 38°13' E 015°15'0 0.0
2015-Aug-29 01:33N 38°13' E 015°15'0 0.0
2015-Aug-29 00:33N 38°13' E 015°15'0 0.0
2015-Aug-28 23:33N 38°13' E 015°15'0 0.0
2015-Aug-28 22:33N 38°13' E 015°15'0 0.0
2015-Aug-28 21:33N 38°13' E 015°15'0 0.0
2015-Aug-28 20:33N 38°13' E 015°15'0 0.0
2015-Aug-28 19:33N 38°13' E 015°15'0 0.0
2015-Aug-28 18:33N 38°13' E 015°15'2 2.5
2015-Aug-28 17:33N 38°15' E 015°17'1212.4
2015-Aug-28 16:33N 38°22' E 015°04'8 8.2
2015-Aug-28 15:33N 38°28' E 014°57'4 4.0
2015-Aug-28 14:34N 38°32' E 014°57'3 0.6
2015-Aug-28 08:26N 38°33' E 014°52'7 7.9
2015-Aug-28 07:33N 38°28' E 014°59'3 3.4
2015-Aug-28 06:33N 38°25' E 014°59'1414.2
2015-Aug-28 05:34N 38°18' E 015°15'5 4.9
2015-Aug-28 04:33N 38°13' E 015°15'0 0.0
2015-Aug-28 03:33N 38°13' E 015°15'0 0.0
2015-Aug-28 02:33N 38°13' E 015°15'0 0.0
2015-Aug-28 01:33N 38°13' E 015°15'0 0.0
2015-Aug-28 00:33N 38°13' E 015°15'0 0.0
2015-Aug-27 23:33N 38°13' E 015°15'0 0.0
2015-Aug-27 22:33N 38°13' E 015°15'0 0.0
2015-Aug-27 21:33N 38°13' E 015°15'0 0.0
2015-Aug-27 20:33N 38°13' E 015°15'0 0.0
2015-Aug-27 19:33N 38°13' E 015°15'0 0.0
2015-Aug-27 18:33N 38°13' E 015°15'5 5.4
2015-Aug-27 17:33N 38°18' E 015°13'1413.7
2015-Aug-27 16:33N 38°25' E 014°58'3 3.2
2015-Aug-27 15:33N 38°28' E 014°58'19 3.6
2015-Aug-27 10:20N 38°33' E 014°35'14 7.6
2015-Aug-27 08:31N 38°33' E 014°52'7 6.6
2015-Aug-27 07:32N 38°28' E 014°57'4 4.1
2015-Aug-27 06:33N 38°25' E 014°60'1414.4
2015-Aug-27 05:33N 38°17' E 015°16'4 4.3
2015-Aug-27 04:33N 38°13' E 015°15'0 0.0
2015-Aug-27 03:33N 38°13' E 015°15'0 0.0
2015-Aug-27 02:33N 38°13' E 015°15'0 0.0
2015-Aug-27 01:33N 38°13' E 015°15'0 0.0
2015-Aug-27 00:33N 38°13' E 015°15'0 0.0
2015-Aug-26 23:33N 38°13' E 015°15'0 0.0
2015-Aug-26 22:33N 38°13' E 015°15'0 0.0
2015-Aug-26 21:33N 38°13' E 015°15'0 0.0
2015-Aug-26 20:33N 38°13' E 015°15'0 0.0
2015-Aug-26 19:33N 38°13' E 015°15'0 0.0
2015-Aug-26 18:33N 38°13' E 015°15'5 4.6
2015-Aug-26 17:33N 38°18' E 015°16'1413.8
2015-Aug-26 16:33N 38°24' E 015°00'4 4.5
2015-Aug-26 15:33N 38°28' E 014°57'7 5.9
2015-Aug-26 14:26N 38°33' E 014°52'0 0.0
2015-Aug-26 08:25N 38°33' E 014°53'6 7.2
2015-Aug-26 07:33N 38°28' E 014°57'5 4.7
2015-Aug-26 06:34N 38°24' E 015°01'1414.5
2015-Aug-26 05:34N 38°17' E 015°16'4 3.8
2015-Aug-26 04:33N 38°13' E 015°15'0 0.0
2015-Aug-26 03:33N 38°13' E 015°15'0 0.0
2015-Aug-26 02:33N 38°13' E 015°15'0 0.0
2015-Aug-26 01:33N 38°13' E 015°15'0 0.0
2015-Aug-26 00:33N 38°13' E 015°15'0 0.0
2015-Aug-25 23:33N 38°13' E 015°15'0 0.0
2015-Aug-25 22:33N 38°13' E 015°15'0 0.0
2015-Aug-25 21:33N 38°13' E 015°15'0 0.0
2015-Aug-25 20:33N 38°13' E 015°15'0 0.0
2015-Aug-25 19:33N 38°13' E 015°15'0 0.0
2015-Aug-25 18:33N 38°13' E 015°15'6 6.0
2015-Aug-25 17:33N 38°19' E 015°13'1310.3
2015-Aug-25 16:17N 38°25' E 014°58'3 4.4
2015-Aug-25 15:32N 38°28' E 014°57'12 5.6
2015-Aug-25 13:29N 38°38' E 015°05'10 8.0
2015-Aug-25 12:13N 38°47' E 015°11'3 3.7
2015-Aug-25 11:31N 38°48' E 015°14'11 8.0
2015-Aug-25 10:09N 38°40' E 015°05'4 5.8
2015-Aug-25 09:33N 38°37' E 015°03'7 5.5
2015-Aug-25 08:19N 38°32' E 014°57'4 5.1
2015-Aug-25 07:33N 38°28' E 014°57'4 3.5
2015-Aug-25 06:33N 38°25' E 014°59'1414.2
2015-Aug-25 05:33N 38°18' E 015°15'5 4.6
2015-Aug-25 04:33N 38°13' E 015°15'0 0.0
2015-Aug-25 03:33N 38°13' E 015°15'0 0.0
2015-Aug-25 02:33N 38°13' E 015°15'0 0.0
2015-Aug-25 01:33N 38°13' E 015°15'0 0.0
2015-Aug-25 00:33N 38°13' E 015°15'0 0.0
2015-Aug-24 23:33N 38°13' E 015°15'0 0.0
2015-Aug-24 22:33N 38°13' E 015°15'0 0.0
2015-Aug-24 21:33N 38°13' E 015°15'0 0.0
2015-Aug-24 20:33N 38°13' E 015°15'0 0.0
2015-Aug-24 19:33N 38°13' E 015°15'0 0.0
2015-Aug-24 18:33N 38°13' E 015°15'5 4.6
2015-Aug-24 17:34N 38°18' E 015°14'1413.8
2015-Aug-24 16:33N 38°25' E 014°59'4 3.6
2015-Aug-24 15:34N 38°28' E 014°57'6 6.3
2015-Aug-24 14:32N 38°33' E 014°52'6 6.3
2015-Aug-24 13:33N 38°33' E 014°45'7 6.9
2015-Aug-24 12:33N 38°34' E 014°36'11 8.1
2015-Aug-24 11:15N 38°32' E 014°23'1013.9
2015-Aug-24 10:32N 38°33' E 014°35'13 6.7
2015-Aug-24 08:32N 38°33' E 014°52'7 6.6
2015-Aug-24 07:33N 38°28' E 014°57'4 4.0
2015-Aug-24 06:33N 38°25' E 015°00'1414.0
2015-Aug-24 05:33N 38°18' E 015°16'5 5.1
2015-Aug-24 04:33N 38°13' E 015°15'0 0.0
2015-Aug-24 03:33N 38°13' E 015°15'0 0.0
2015-Aug-24 02:33N 38°13' E 015°15'0 0.0
2015-Aug-24 01:33N 38°13' E 015°15'0 0.0
2015-Aug-24 00:33N 38°13' E 015°15'0 0.0
2015-Aug-23 23:33N 38°13' E 015°15'0 0.0
2015-Aug-23 22:33N 38°13' E 015°15'0 0.0
2015-Aug-23 21:33N 38°13' E 015°15'0 0.0
2015-Aug-23 20:33N 38°13' E 015°15'0 0.0
2015-Aug-23 19:33N 38°13' E 015°15'0 0.0
2015-Aug-23 18:33N 38°13' E 015°15'6 5.8
2015-Aug-23 17:33N 38°19' E 015°13'13 9.4
2015-Aug-23 16:09N 38°25' E 014°58'3 5.3
2015-Aug-23 15:33N 38°28' E 014°57'7 0.9
2015-Aug-23 08:33N 38°33' E 014°52'7 6.5
2015-Aug-23 07:33N 38°28' E 014°57'4 3.6
2015-Aug-23 06:32N 38°25' E 014°59'1414.0
2015-Aug-23 05:33N 38°18' E 015°14'  
Track history (hours):
 
Tides and Currents Weather Stations Pressure Air Temp Water Temp Dewpoint Dewpoint Depression Visibility Wind Speed Wind Dir Waves Ship Positions

Pietro Novelli

Last reported at 2015-Aug-31 04:33 UTC. Time now 2015-Aug-31 04:44 UTC.
Position N 38°13' E 015°15'.

Length 91 m; draft 3.9 m.

Type: Ship. MMSI: 247000300.

Date/timePositionNaut miles runAvg speedWind from/ knotsBaromVisibWave heightAir tempDewpointWater temp
2015-Aug-31 04:33N 38°13' E 015°15'0 0.0
2015-Aug-31 03:33N 38°13' E 015°15'0 0.0
2015-Aug-31 02:33N 38°13' E 015°15'0 0.0
2015-Aug-31 01:33N 38°13' E 015°15'0 0.0
2015-Aug-31 00:33N 38°13' E 015°15'0 0.0
2015-Aug-30 23:33N 38°13' E 015°15'0 0.0
2015-Aug-30 22:33N 38°13' E 015°15'0 0.0
2015-Aug-30 21:33N 38°13' E 015°15'0 0.0
2015-Aug-30 20:33N 38°13' E 015°15'0 0.0
2015-Aug-30 19:33N 38°13' E 015°15'0 0.0
2015-Aug-30 18:33N 38°13' E 015°15'4 3.5
2015-Aug-30 17:32N 38°16' E 015°17'1312.9
2015-Aug-30 16:33N 38°23' E 015°03'7 6.8
2015-Aug-30 15:33N 38°28' E 014°57'5 5.0
2015-Aug-30 14:33N 38°33' E 014°55'15 7.5
2015-Aug-30 12:30N 38°34' E 014°35'1111.2
2015-Aug-30 11:33N 38°32' E 014°22'5 4.9
2015-Aug-30 10:33N 38°33' E 014°28'8 8.4
2015-Aug-30 09:33N 38°34' E 014°38'1110.0
2015-Aug-30 08:27N 38°33' E 014°53'7 7.2
2015-Aug-30 07:33N 38°28' E 014°58'4 3.8
2015-Aug-30 06:33N 38°25' E 014°60'1414.2
2015-Aug-30 05:33N 38°17' E 015°15'4 4.2
2015-Aug-30 04:33N 38°13' E 015°15'0 0.0
2015-Aug-30 03:33N 38°13' E 015°15'0 0.0
2015-Aug-30 02:34N 38°13' E 015°15'0 0.0
2015-Aug-30 01:33N 38°13' E 015°15'0 0.0
2015-Aug-30 00:33N 38°13' E 015°15'0 0.0
2015-Aug-29 23:34N 38°13' E 015°15'0 0.0
2015-Aug-29 22:33N 38°13' E 015°15'0 0.0
2015-Aug-29 21:33N 38°13' E 015°15'0 0.0
2015-Aug-29 20:34N 38°13' E 015°15'0 0.0
2015-Aug-29 19:33N 38°13' E 015°15'0 0.0
2015-Aug-29 18:33N 38°13' E 015°15'3 3.4
2015-Aug-29 17:34N 38°16' E 015°17'1313.2
2015-Aug-29 16:33N 38°24' E 015°03'6 6.3
2015-Aug-29 15:33N 38°28' E 014°57'6 5.8
2015-Aug-29 14:33N 38°33' E 014°54'7 7.0
2015-Aug-29 13:34N 38°36' E 015°02'6 6.0
2015-Aug-29 12:32N 38°41' E 015°06'9 9.4
2015-Aug-29 11:33N 38°48' E 015°15'3 2.7
2015-Aug-29 10:33N 38°47' E 015°11'10 9.9
2015-Aug-29 09:33N 38°38' E 015°05'9 9.4
2015-Aug-29 08:33N 38°34' E 014°54'6 6.3
2015-Aug-29 07:33N 38°28' E 014°58'3 3.4
2015-Aug-29 06:33N 38°25' E 014°59'1414.5
2015-Aug-29 05:33N 38°18' E 015°15'5 4.6
2015-Aug-29 04:33N 38°13' E 015°15'0 0.0
2015-Aug-29 03:33N 38°13' E 015°15'0 0.0
2015-Aug-29 02:33N 38°13' E 015°15'0 0.0
2015-Aug-29 01:33N 38°13' E 015°15'0 0.0
2015-Aug-29 00:33N 38°13' E 015°15'0 0.0
2015-Aug-28 23:33N 38°13' E 015°15'0 0.0
2015-Aug-28 22:33N 38°13' E 015°15'0 0.0
2015-Aug-28 21:33N 38°13' E 015°15'0 0.0
2015-Aug-28 20:33N 38°13' E 015°15'0 0.0
2015-Aug-28 19:33N 38°13' E 015°15'0 0.0
2015-Aug-28 18:33N 38°13' E 015°15'2 2.5
2015-Aug-28 17:33N 38°15' E 015°17'1212.4
2015-Aug-28 16:33N 38°22' E 015°04'8 8.2
2015-Aug-28 15:33N 38°28' E 014°57'4 4.0
2015-Aug-28 14:34N 38°32' E 014°57'3 0.6
2015-Aug-28 08:26N 38°33' E 014°52'7 7.9
2015-Aug-28 07:33N 38°28' E 014°59'3 3.4
2015-Aug-28 06:33N 38°25' E 014°59'1414.2
2015-Aug-28 05:34N 38°18' E 015°15'5 4.9
2015-Aug-28 04:33N 38°13' E 015°15'0 0.0
2015-Aug-28 03:33N 38°13' E 015°15'0 0.0
2015-Aug-28 02:33N 38°13' E 015°15'0 0.0
2015-Aug-28 01:33N 38°13' E 015°15'0 0.0
2015-Aug-28 00:33N 38°13' E 015°15'0 0.0
2015-Aug-27 23:33N 38°13' E 015°15'0 0.0
2015-Aug-27 22:33N 38°13' E 015°15'0 0.0
2015-Aug-27 21:33N 38°13' E 015°15'0 0.0
2015-Aug-27 20:33N 38°13' E 015°15'0 0.0
2015-Aug-27 19:33N 38°13' E 015°15'0 0.0
2015-Aug-27 18:33N 38°13' E 015°15'5 5.4
2015-Aug-27 17:33N 38°18' E 015°13'1413.7
2015-Aug-27 16:33N 38°25' E 014°58'3 3.2
2015-Aug-27 15:33N 38°28' E 014°58'19 3.6
2015-Aug-27 10:20N 38°33' E 014°35'14 7.6
2015-Aug-27 08:31N 38°33' E 014°52'7 6.6
2015-Aug-27 07:32N 38°28' E 014°57'4 4.1
2015-Aug-27 06:33N 38°25' E 014°60'1414.4
2015-Aug-27 05:33N 38°17' E 015°16'4 4.3
2015-Aug-27 04:33N 38°13' E 015°15'0 0.0
2015-Aug-27 03:33N 38°13' E 015°15'0 0.0
2015-Aug-27 02:33N 38°13' E 015°15'0 0.0
2015-Aug-27 01:33N 38°13' E 015°15'0 0.0
2015-Aug-27 00:33N 38°13' E 015°15'0 0.0
2015-Aug-26 23:33N 38°13' E 015°15'0 0.0
2015-Aug-26 22:33N 38°13' E 015°15'0 0.0
2015-Aug-26 21:33N 38°13' E 015°15'0 0.0
2015-Aug-26 20:33N 38°13' E 015°15'0 0.0
2015-Aug-26 19:33N 38°13' E 015°15'0 0.0
2015-Aug-26 18:33N 38°13' E 015°15'5 4.6
2015-Aug-26 17:33N 38°18' E 015°16'1413.8
2015-Aug-26 16:33N 38°24' E 015°00'4 4.5
2015-Aug-26 15:33N 38°28' E 014°57'7 5.9
2015-Aug-26 14:26N 38°33' E 014°52'0 0.0
2015-Aug-26 08:25N 38°33' E 014°53'6 7.2
2015-Aug-26 07:33N 38°28' E 014°57'5 4.7
2015-Aug-26 06:34N 38°24' E 015°01'1414.5
2015-Aug-26 05:34N 38°17' E 015°16'4 3.8
2015-Aug-26 04:33N 38°13' E 015°15'0 0.0
2015-Aug-26 03:33N 38°13' E 015°15'0 0.0
2015-Aug-26 02:33N 38°13' E 015°15'0 0.0
2015-Aug-26 01:33N 38°13' E 015°15'0 0.0
2015-Aug-26 00:33N 38°13' E 015°15'0 0.0
2015-Aug-25 23:33N 38°13' E 015°15'0 0.0
2015-Aug-25 22:33N 38°13' E 015°15'0 0.0
2015-Aug-25 21:33N 38°13' E 015°15'0 0.0
2015-Aug-25 20:33N 38°13' E 015°15'0 0.0
2015-Aug-25 19:33N 38°13' E 015°15'0 0.0
2015-Aug-25 18:33N 38°13' E 015°15'6 6.0
2015-Aug-25 17:33N 38°19' E 015°13'1310.3
2015-Aug-25 16:17N 38°25' E 014°58'3 4.4
2015-Aug-25 15:32N 38°28' E 014°57'12 5.6
2015-Aug-25 13:29N 38°38' E 015°05'10 8.0
2015-Aug-25 12:13N 38°47' E 015°11'3 3.7
2015-Aug-25 11:31N 38°48' E 015°14'11 8.0
2015-Aug-25 10:09N 38°40' E 015°05'4 5.8
2015-Aug-25 09:33N 38°37' E 015°03'7 5.5
2015-Aug-25 08:19N 38°32' E 014°57'4 5.1
2015-Aug-25 07:33N 38°28' E 014°57'4 3.5
2015-Aug-25 06:33N 38°25' E 014°59'1414.2
2015-Aug-25 05:33N 38°18' E 015°15'5 4.6
2015-Aug-25 04:33N 38°13' E 015°15'0 0.0
2015-Aug-25 03:33N 38°13' E 015°15'0 0.0
2015-Aug-25 02:33N 38°13' E 015°15'0 0.0
2015-Aug-25 01:33N 38°13' E 015°15'0 0.0
2015-Aug-25 00:33N 38°13' E 015°15'0 0.0
2015-Aug-24 23:33N 38°13' E 015°15'0 0.0
2015-Aug-24 22:33N 38°13' E 015°15'0 0.0
2015-Aug-24 21:33N 38°13' E 015°15'0 0.0
2015-Aug-24 20:33N 38°13' E 015°15'0 0.0
2015-Aug-24 19:33N 38°13' E 015°15'0 0.0
2015-Aug-24 18:33N 38°13' E 015°15'5 4.6
2015-Aug-24 17:34N 38°18' E 015°14'1413.8
2015-Aug-24 16:33N 38°25' E 014°59'4 3.6
2015-Aug-24 15:34N 38°28' E 014°57'6 6.3
2015-Aug-24 14:32N 38°33' E 014°52'6 6.3
2015-Aug-24 13:33N 38°33' E 014°45'7 6.9
2015-Aug-24 12:33N 38°34' E 014°36'11 8.1
2015-Aug-24 11:15N 38°32' E 014°23'1013.9
2015-Aug-24 10:32N 38°33' E 014°35'13 6.7
2015-Aug-24 08:32N 38°33' E 014°52'7 6.6
2015-Aug-24 07:33N 38°28' E 014°57'4 4.0
2015-Aug-24 06:33N 38°25' E 015°00'1414.0
2015-Aug-24 05:33N 38°18' E 015°16'5 5.1
2015-Aug-24 04:33N 38°13' E 015°15'0 0.0
2015-Aug-24 03:33N 38°13' E 015°15'0 0.0
2015-Aug-24 02:33N 38°13' E 015°15'0 0.0
2015-Aug-24 01:33N 38°13' E 015°15'0 0.0
2015-Aug-24 00:33N 38°13' E 015°15'0 0.0
2015-Aug-23 23:33N 38°13' E 015°15'0 0.0
2015-Aug-23 22:33N 38°13' E 015°15'0 0.0
2015-Aug-23 21:33N 38°13' E 015°15'0 0.0
2015-Aug-23 20:33N 38°13' E 015°15'0 0.0
2015-Aug-23 19:33N 38°13' E 015°15'0 0.0
2015-Aug-23 18:33N 38°13' E 015°15'6 5.8
2015-Aug-23 17:33N 38°19' E 015°13'13 9.4
2015-Aug-23 16:09N 38°25' E 014°58'3 5.3
2015-Aug-23 15:33N 38°28' E 014°57'7 0.9
2015-Aug-23 08:33N 38°33' E 014°52'7 6.5
2015-Aug-23 07:33N 38°28' E 014°57'4 3.6
2015-Aug-23 06:32N 38°25' E 014°59'1414.0
2015-Aug-23 05:33N 38°18' E 015°14'  

Dump ship's entire track history